createdAt,value
2023-04-25T00:02:13.402Z,86.79
2023-04-25T00:05:18.377Z,87.31
2023-04-25T00:08:20.637Z,87.59
2023-04-25T00:11:22.555Z,87.91
2023-04-25T00:14:24.512Z,87.41
2023-04-25T00:17:26.675Z,87.12
2023-04-25T00:20:28.761Z,86.35
2023-04-25T00:23:30.843Z,87.65
2023-04-25T00:26:32.719Z,87.61
2023-04-25T00:29:35.140Z,86.64
2023-04-25T00:32:37.258Z,87.93
2023-04-25T00:35:39.540Z,87.87
2023-04-25T00:38:41.595Z,87.11
2023-04-25T00:41:44.184Z,86.44
2023-04-25T00:44:46.534Z,87.54
2023-04-25T00:47:51.303Z,86.64
2023-04-25T00:50:59.102Z,87.28
2023-04-25T00:54:02.600Z,86.56
2023-04-25T00:57:04.529Z,86.11
2023-04-25T01:00:07.918Z,87.98
2023-04-25T01:03:11.189Z,87.43
2023-04-25T01:06:13.636Z,87.60
2023-04-25T01:09:15.966Z,86.63
2023-04-25T01:12:18.168Z,88.11
2023-04-25T01:15:20.191Z,87.78
2023-04-25T01:18:22.537Z,87.44
2023-04-25T01:21:27.338Z,88.32
2023-04-25T01:24:29.385Z,88.22
2023-04-25T01:27:31.854Z,87.62
2023-04-25T01:30:34.578Z,86.97
2023-04-25T01:33:36.800Z,87.43
2023-04-25T01:36:38.839Z,87.75
2023-04-25T01:39:40.972Z,86.89
2023-04-25T01:42:44.570Z,88.00
2023-04-25T01:45:46.592Z,87.54
2023-04-25T01:48:49.024Z,87.63
2023-04-25T01:51:51.119Z,87.55
2023-04-25T01:54:54.739Z,87.88
2023-04-25T01:57:56.672Z,87.95
2023-04-25T02:00:58.763Z,88.20
2023-04-25T02:04:01.408Z,87.76
2023-04-25T02:07:04.675Z,87.30
2023-04-25T02:10:06.887Z,87.50
2023-04-25T02:13:08.874Z,87.53
2023-04-25T02:16:10.731Z,87.20
2023-04-25T02:19:13.374Z,87.64
2023-04-25T02:22:15.538Z,87.39
2023-04-25T02:25:18.398Z,87.88
2023-04-25T02:28:20.566Z,87.83
2023-04-25T02:31:22.511Z,87.67
2023-04-25T02:34:24.443Z,88.54
2023-04-25T02:37:26.274Z,88.34
2023-04-25T02:40:32.040Z,88.82
2023-04-25T02:43:33.925Z,88.45
2023-04-25T02:46:39.424Z,88.80
2023-04-25T02:49:41.859Z,88.77
2023-04-25T02:52:43.753Z,89.02
2023-04-25T02:55:45.564Z,89.12
2023-04-25T02:58:47.401Z,88.54
2023-04-25T03:01:49.320Z,88.27
2023-04-25T03:04:51.279Z,88.61
2023-04-25T03:07:53.118Z,88.50
2023-04-25T03:10:56.687Z,88.79
2023-04-25T03:13:58.599Z,88.38
2023-04-25T03:17:00.675Z,87.31
2023-04-25T03:20:04.964Z,87.85
2023-04-25T03:23:06.853Z,88.20
2023-04-25T03:26:08.756Z,87.78
2023-04-25T03:29:10.737Z,88.33
2023-04-25T03:32:12.708Z,88.56
2023-04-25T03:35:14.556Z,88.13
2023-04-25T03:38:16.777Z,88.06
2023-04-25T03:41:18.642Z,88.72
2023-04-25T03:44:20.648Z,89.23
2023-04-25T03:47:22.588Z,89.15
2023-04-25T03:50:24.782Z,90.24
2023-04-25T03:53:26.812Z,89.52
2023-04-25T03:56:28.678Z,88.91
2023-04-25T03:59:30.736Z,87.97
2023-04-25T04:02:34.159Z,88.26
2023-04-25T04:05:36.394Z,88.25
2023-04-25T04:08:38.316Z,88.55
2023-04-25T04:11:40.641Z,87.16
2023-04-25T04:14:42.578Z,86.99
2023-04-25T04:17:44.406Z,86.51
2023-04-25T04:20:46.512Z,86.57
2023-04-25T04:23:49.358Z,86.89
2023-04-25T04:26:51.806Z,86.49
2023-04-25T04:29:54.378Z,85.66
2023-04-25T04:32:57.518Z,86.19
2023-04-25T04:36:00.026Z,86.99
2023-04-25T04:39:03.031Z,86.83
2023-04-25T04:42:06.099Z,87.20
2023-04-25T04:45:08.580Z,86.24
2023-04-25T04:48:13.069Z,85.48
2023-04-25T04:51:15.153Z,85.48
2023-04-25T04:54:17.016Z,86.33
2023-04-25T04:57:18.868Z,86.39
2023-04-25T05:00:21.906Z,85.34
2023-04-25T05:03:24.065Z,86.79
2023-04-25T05:06:26.853Z,85.15
2023-04-25T05:09:28.693Z,85.74
2023-04-25T05:12:31.487Z,86.23
2023-04-25T05:15:33.337Z,86.04
2023-04-25T05:18:36.216Z,86.14
2023-04-25T05:21:38.164Z,86.12
2023-04-25T05:24:40.173Z,85.82
2023-04-25T05:27:42.032Z,85.92
2023-04-25T05:30:43.908Z,85.14
2023-04-25T05:33:45.854Z,85.89
2023-04-25T05:36:49.496Z,85.96
2023-04-25T05:39:51.509Z,85.77
2023-04-25T05:42:53.370Z,85.85
2023-04-25T05:45:55.425Z,85.48
2023-04-25T05:48:57.539Z,86.23
2023-04-25T05:51:59.750Z,86.85
2023-04-25T05:55:01.710Z,84.86
2023-04-25T05:58:03.724Z,85.48
2023-04-25T06:01:05.916Z,85.29
2023-04-25T06:04:08.057Z,85.71
2023-04-25T06:07:10.350Z,86.76
2023-04-25T06:10:12.347Z,87.03
2023-04-25T06:13:14.459Z,86.65
2023-04-25T06:16:16.520Z,87.25
2023-04-25T06:19:18.358Z,87.84
2023-04-25T06:22:20.269Z,88.71
2023-04-25T06:25:22.392Z,88.56
2023-04-25T06:28:25.438Z,87.62
2023-04-25T06:31:27.607Z,86.98
2023-04-25T06:34:29.582Z,86.79
2023-04-25T06:37:32.301Z,87.66
2023-04-25T06:40:34.179Z,87.86
2023-04-25T06:43:36.226Z,87.82
2023-04-25T06:46:38.837Z,87.51
2023-04-25T06:49:40.894Z,88.10
2023-04-25T06:52:42.764Z,87.23
2023-04-25T06:55:44.682Z,87.79
2023-04-25T06:58:46.495Z,84.83
2023-04-25T07:01:48.798Z,84.98
2023-04-25T07:04:51.017Z,85.36
2023-04-25T07:07:53.036Z,86.99
2023-04-25T07:10:55.113Z,85.55
2023-04-25T07:13:57.164Z,85.83
2023-04-25T07:16:59.140Z,85.81
2023-04-25T07:20:01.465Z,86.29
2023-04-25T07:23:03.509Z,86.00
2023-04-25T07:26:05.437Z,86.70
2023-04-25T07:29:07.369Z,86.49
2023-04-25T07:32:09.525Z,85.23
2023-04-25T07:35:11.384Z,85.52
2023-04-25T07:38:13.288Z,85.88
2023-04-25T07:41:15.224Z,85.97
2023-04-25T07:44:17.058Z,86.35
2023-04-25T07:47:20.381Z,86.88
2023-04-25T07:50:22.508Z,86.19
2023-04-25T07:53:24.572Z,85.77
2023-04-25T07:56:26.580Z,85.53
2023-04-25T07:59:30.230Z,85.45
2023-04-25T08:02:32.845Z,85.80
2023-04-25T08:05:34.920Z,86.02
2023-04-25T08:08:36.966Z,86.46
2023-04-25T08:11:39.505Z,87.05
2023-04-25T08:14:41.459Z,86.99
2023-04-25T08:17:44.983Z,86.97
2023-04-25T08:20:47.461Z,87.96
2023-04-25T08:23:49.331Z,87.17
2023-04-25T08:26:52.032Z,86.72
2023-04-25T08:29:54.051Z,88.19
2023-04-25T08:32:55.977Z,88.14
2023-04-25T08:35:58.863Z,87.15
2023-04-25T08:39:00.697Z,88.18
2023-04-25T08:43:45.063Z,89.13
2023-04-25T08:46:51.204Z,89.11
2023-04-25T08:49:55.112Z,87.99
2023-04-25T08:53:02.663Z,87.20
2023-04-25T08:56:04.867Z,88.41
2023-04-25T08:59:09.052Z,87.19
2023-04-25T09:02:15.582Z,86.94
2023-04-25T09:05:20.199Z,87.58
2023-04-25T09:08:23.942Z,86.62
2023-04-25T09:11:25.941Z,86.90
2023-04-25T09:14:29.045Z,87.33
2023-04-25T09:17:31.299Z,86.66
2023-04-25T09:20:35.321Z,85.87
2023-04-25T09:23:45.690Z,85.38
2023-04-25T09:26:48.796Z,85.92
2023-04-25T09:29:59.379Z,85.66
2023-04-25T09:33:08.737Z,86.94
2023-04-25T09:36:17.109Z,87.25
2023-04-25T09:39:20.628Z,84.65
2023-04-25T09:42:25.147Z,86.90
2023-04-25T09:45:30.410Z,85.88
2023-04-25T09:48:32.551Z,84.82
2023-04-25T09:51:34.551Z,84.61
2023-04-25T09:54:36.612Z,86.06
2023-04-25T09:57:40.954Z,86.18
2023-04-25T10:00:43.112Z,86.99
2023-04-25T10:03:49.260Z,86.57
2023-04-25T10:06:53.438Z,86.36
2023-04-25T10:10:02.874Z,85.88
2023-04-25T10:13:06.906Z,86.75
2023-04-25T10:16:09.553Z,85.66
2023-04-25T10:19:12.178Z,87.68
2023-04-25T10:22:21.681Z,86.04
2023-04-25T10:25:25.067Z,86.71
2023-04-25T10:28:27.051Z,87.19
2023-04-25T10:31:32.021Z,87.42
2023-04-25T10:34:48.083Z,86.27
2023-04-25T10:38:06.145Z,87.60
2023-04-25T10:41:10.213Z,86.68
2023-04-25T10:44:12.082Z,87.83
2023-04-25T10:47:14.037Z,87.03
2023-04-25T10:50:19.823Z,88.01
2023-04-25T10:53:26.211Z,87.47
2023-04-25T10:56:30.581Z,86.91
2023-04-25T10:59:33.301Z,86.77
2023-04-25T11:02:39.201Z,86.58
2023-04-25T11:05:57.342Z,86.04
2023-04-25T11:09:03.158Z,85.02
2023-04-25T11:12:06.366Z,85.32
2023-04-25T11:15:09.239Z,85.44
2023-04-25T11:18:11.282Z,86.90
2023-04-25T11:21:16.789Z,85.99
2023-04-25T11:24:19.018Z,85.35
2023-04-25T11:27:22.352Z,85.02
2023-04-25T11:30:25.933Z,85.45
2023-04-25T11:33:28.564Z,84.52
2023-04-25T11:36:35.280Z,84.50
2023-04-25T11:39:37.440Z,83.46
2023-04-25T11:42:40.434Z,83.89
2023-04-25T11:45:43.064Z,83.84
2023-04-25T11:48:49.135Z,83.87
2023-04-25T11:51:54.284Z,83.97
2023-04-25T11:54:58.019Z,85.80
2023-04-25T11:58:01.419Z,84.73
2023-04-25T12:01:04.093Z,84.95
2023-04-25T12:04:33.646Z,85.20
2023-04-25T12:07:36.335Z,84.74
2023-04-25T12:10:41.364Z,86.04
2023-04-25T12:13:45.143Z,84.69
2023-04-25T12:16:48.132Z,85.27
2023-04-25T12:19:50.086Z,84.71
2023-04-25T12:22:53.243Z,84.19
2023-04-25T12:25:55.457Z,83.74
2023-04-25T12:28:57.532Z,84.02
2023-04-25T12:31:59.949Z,84.38
2023-04-25T12:35:02.385Z,85.21
2023-04-25T12:38:04.475Z,84.06
2023-04-25T12:41:06.987Z,82.57
2023-04-25T12:44:08.945Z,84.14
2023-04-25T12:47:11.112Z,85.61
2023-04-25T12:50:13.287Z,83.98
2023-04-25T12:53:17.969Z,84.73
2023-04-25T12:56:21.479Z,82.88
2023-04-25T12:59:25.531Z,82.59
2023-04-25T13:02:27.734Z,83.42
2023-04-25T13:05:31.333Z,84.19
2023-04-25T13:08:33.400Z,81.89
2023-04-25T13:11:35.429Z,82.57
2023-04-25T13:14:37.581Z,81.32
2023-04-25T13:17:40.009Z,82.58
2023-04-25T13:20:42.095Z,81.35
2023-04-25T13:23:45.708Z,82.73
2023-04-25T13:26:47.637Z,81.81
2023-04-25T13:29:49.534Z,81.51
2023-04-25T13:32:54.030Z,82.47
2023-04-25T13:35:57.447Z,82.61
2023-04-25T13:38:59.254Z,81.63
2023-04-25T13:42:01.430Z,80.60
2023-04-25T13:45:03.979Z,80.86
2023-04-25T13:48:06.168Z,81.66
2023-04-25T13:51:08.145Z,82.79
2023-04-25T13:54:10.214Z,81.95
2023-04-25T13:57:12.516Z,82.10
2023-04-25T14:00:15.029Z,81.25
2023-04-25T14:03:17.398Z,82.02
2023-04-25T14:06:23.805Z,80.43
2023-04-25T14:09:26.780Z,79.33
2023-04-25T14:12:28.726Z,79.59
2023-04-25T14:15:34.725Z,80.47
